Ardsley, Pennsylvania
Current Conditions -  °F | °C
As of 9:55 PM on Thursday 18 Dec 2014 (Local Time) from KLOM Reporting Station
Overcast Overcast  
Wind Chill: 37°   Ceiling: 3500
Heat Index: 37°   Visibility: 10mi
Dew Point: 28°   Wind: 3mph
Humidity: 70%   Direction: 270°W
Pressure: 30.02"   Gusts: NA
Location:  40.1012°N, 75.1722°W
Report Text: KLOM 190255Z AUTO 27003KT 10SM OVC035 03/M02 A3002 RMK AO1
Loading
Personal Weather Stations






























Interactive Weather Map New forecast layout! Learn more

10-Day Weather Forecast

Advertisements
Track Severe Weather on mobile